sensor_id;sensor_type;location;lat;lon;timestamp;temperature;humidity
10304;DHT22;5197;48.152;8.590;2022-08-25T00:01:59;17.80;7.60
10304;DHT22;5197;48.152;8.590;2022-08-25T00:04:28;17.80;8.10
10304;DHT22;5197;48.152;8.590;2022-08-25T00:06:56;17.80;8.20
10304;DHT22;5197;48.152;8.590;2022-08-25T00:09:29;17.80;8.20
10304;DHT22;5197;48.152;8.590;2022-08-25T00:11:57;17.80;9.30
10304;DHT22;5197;48.152;8.590;2022-08-25T00:14:28;17.90;8.20
10304;DHT22;5197;48.152;8.590;2022-08-25T00:16:56;17.90;7.80
10304;DHT22;5197;48.152;8.590;2022-08-25T00:19:27;17.80;7.80
10304;DHT22;5197;48.152;8.590;2022-08-25T00:21:55;17.80;7.90
10304;DHT22;5197;48.152;8.590;2022-08-25T00:24:23;17.80;7.80
10304;DHT22;5197;48.152;8.590;2022-08-25T00:26:53;17.80;8.10
10304;DHT22;5197;48.152;8.590;2022-08-25T00:29:22;17.80;8.30
10304;DHT22;5197;48.152;8.590;2022-08-25T00:31:52;17.70;8.20
10304;DHT22;5197;48.152;8.590;2022-08-25T00:34:24;17.70;8.30
10304;DHT22;5197;48.152;8.590;2022-08-25T00:36:52;17.70;8.40
10304;DHT22;5197;48.152;8.590;2022-08-25T00:39:20;17.70;8.60
10304;DHT22;5197;48.152;8.590;2022-08-25T00:41:50;17.60;8.50
10304;DHT22;5197;48.152;8.590;2022-08-25T00:44:18;17.60;8.40
10304;DHT22;5197;48.152;8.590;2022-08-25T00:46:49;17.60;8.40
10304;DHT22;5197;48.152;8.590;2022-08-25T00:49:25;17.50;8.70
10304;DHT22;5197;48.152;8.590;2022-08-25T00:51:59;17.50;8.70
10304;DHT22;5197;48.152;8.590;2022-08-25T00:54:33;17.40;8.90
10304;DHT22;5197;48.152;8.590;2022-08-25T00:57:03;17.40;9.60
10304;DHT22;5197;48.152;8.590;2022-08-25T00:59:30;17.40;10.00
10304;DHT22;5197;48.152;8.590;2022-08-25T01:01:59;17.40;10.20
10304;DHT22;5197;48.152;8.590;2022-08-25T01:04:26;17.40;10.20
10304;DHT22;5197;48.152;8.590;2022-08-25T01:06:54;17.30;10.10
10304;DHT22;5197;48.152;8.590;2022-08-25T01:09:22;17.30;10.10
10304;DHT22;5197;48.152;8.590;2022-08-25T01:11:49;17.30;10.40
10304;DHT22;5197;48.152;8.590;2022-08-25T01:14:18;17.30;10.60
10304;DHT22;5197;48.152;8.590;2022-08-25T01:16:45;17.30;10.70
10304;DHT22;5197;48.152;8.590;2022-08-25T01:19:16;17.20;10.50
10304;DHT22;5197;48.152;8.590;2022-08-25T01:21:50;17.20;10.70
10304;DHT22;5197;48.152;8.590;2022-08-25T01:24:34;17.20;10.80
10304;DHT22;5197;48.152;8.590;2022-08-25T01:27:03;17.20;10.50
10304;DHT22;5197;48.152;8.590;2022-08-25T01:29:31;17.10;10.80
10304;DHT22;5197;48.152;8.590;2022-08-25T01:32:06;17.10;10.90
10304;DHT22;5197;48.152;8.590;2022-08-25T01:34:36;17.10;10.90
10304;DHT22;5197;48.152;8.590;2022-08-25T01:37:04;17.00;11.20
10304;DHT22;5197;48.152;8.590;2022-08-25T01:39:31;17.00;11.40
10304;DHT22;5197;48.152;8.590;2022-08-25T01:44:50;16.80;11.40
10304;DHT22;5197;48.152;8.590;2022-08-25T01:47:18;16.80;12.50
10304;DHT22;5197;48.152;8.590;2022-08-25T01:49:45;16.70;12.60
10304;DHT22;5197;48.152;8.590;2022-08-25T01:54:47;16.70;12.90
10304;DHT22;5197;48.152;8.590;2022-08-25T01:57:14;16.60;13.40
10304;DHT22;5197;48.152;8.590;2022-08-25T01:59:41;16.50;13.70
10304;DHT22;5197;48.152;8.590;2022-08-25T02:02:08;16.50;13.70
10304;DHT22;5197;48.152;8.590;2022-08-25T02:04:36;16.50;13.70
10304;DHT22;5197;48.152;8.590;2022-08-25T02:07:06;16.50;13.70
10304;DHT22;5197;48.152;8.590;2022-08-25T02:09:34;16.50;13.70
10304;DHT22;5197;48.152;8.590;2022-08-25T02:12:01;16.40;14.40
10304;DHT22;5197;48.152;8.590;2022-08-25T02:14:28;16.50;14.50
10304;DHT22;5197;48.152;8.590;2022-08-25T02:16:55;16.40;14.40
10304;DHT22;5197;48.152;8.590;2022-08-25T02:19:24;16.40;15.70
10304;DHT22;5197;48.152;8.590;2022-08-25T02:21:51;16.40;15.00
10304;DHT22;5197;48.152;8.590;2022-08-25T02:24:19;16.40;15.20
10304;DHT22;5197;48.152;8.590;2022-08-25T02:26:46;16.30;15.20
10304;DHT22;5197;48.152;8.590;2022-08-25T02:29:13;16.30;15.40
10304;DHT22;5197;48.152;8.590;2022-08-25T02:31:41;16.30;15.70
10304;DHT22;5197;48.152;8.590;2022-08-25T02:34:08;16.20;15.90
10304;DHT22;5197;48.152;8.590;2022-08-25T02:36:37;16.20;16.10
10304;DHT22;5197;48.152;8.590;2022-08-25T02:39:06;16.20;16.10
10304;DHT22;5197;48.152;8.590;2022-08-25T02:41:34;16.20;16.00
10304;DHT22;5197;48.152;8.590;2022-08-25T02:44:03;16.20;15.90
10304;DHT22;5197;48.152;8.590;2022-08-25T02:46:30;16.20;16.00
10304;DHT22;5197;48.152;8.590;2022-08-25T02:48:58;16.10;16.00
10304;DHT22;5197;48.152;8.590;2022-08-25T02:51:25;16.10;15.90
10304;DHT22;5197;48.152;8.590;2022-08-25T02:53:57;16.00;15.90
10304;DHT22;5197;48.152;8.590;2022-08-25T02:56:25;16.00;16.20
10304;DHT22;5197;48.152;8.590;2022-08-25T02:58:52;16.00;16.30
10304;DHT22;5197;48.152;8.590;2022-08-25T03:01:19;16.00;16.20
10304;DHT22;5197;48.152;8.590;2022-08-25T03:03:54;16.00;16.20
10304;DHT22;5197;48.152;8.590;2022-08-25T03:06:21;16.00;16.20
10304;DHT22;5197;48.152;8.590;2022-08-25T03:08:51;16.00;16.40
10304;DHT22;5197;48.152;8.590;2022-08-25T03:11:19;15.80;16.60
10304;DHT22;5197;48.152;8.590;2022-08-25T03:13:47;15.70;17.10
10304;DHT22;5197;48.152;8.590;2022-08-25T03:16:17;15.70;17.60
10304;DHT22;5197;48.152;8.590;2022-08-25T03:18:45;15.60;18.20
10304;DHT22;5197;48.152;8.590;2022-08-25T03:21:12;15.50;18.60
10304;DHT22;5197;48.152;8.590;2022-08-25T03:23:42;15.50;18.90
10304;DHT22;5197;48.152;8.590;2022-08-25T03:26:09;15.50;19.40
10304;DHT22;5197;48.152;8.590;2022-08-25T03:28:55;15.40;19.70
10304;DHT22;5197;48.152;8.590;2022-08-25T03:31:23;15.40;19.90
10304;DHT22;5197;48.152;8.590;2022-08-25T03:33:53;15.40;19.90
10304;DHT22;5197;48.152;8.590;2022-08-25T03:36:21;15.40;19.70
10304;DHT22;5197;48.152;8.590;2022-08-25T03:38:48;15.40;19.80
10304;DHT22;5197;48.152;8.590;2022-08-25T03:41:18;15.40;19.50
10304;DHT22;5197;48.152;8.590;2022-08-25T03:43:47;15.50;19.20
10304;DHT22;5197;48.152;8.590;2022-08-25T03:46:29;15.50;19.10
10304;DHT22;5197;48.152;8.590;2022-08-25T03:48:58;15.50;18.60
10304;DHT22;5197;48.152;8.590;2022-08-25T03:51:31;15.50;19.10
10304;DHT22;5197;48.152;8.590;2022-08-25T03:54:00;15.50;18.80
10304;DHT22;5197;48.152;8.590;2022-08-25T03:56:27;15.50;18.70
10304;DHT22;5197;48.152;8.590;2022-08-25T03:58:57;15.50;18.50
10304;DHT22;5197;48.152;8.590;2022-08-25T04:01:25;15.50;18.60
10304;DHT22;5197;48.152;8.590;2022-08-25T04:03:53;15.50;18.80
10304;DHT22;5197;48.152;8.590;2022-08-25T04:06:21;15.50;19.00
10304;DHT22;5197;48.152;8.590;2022-08-25T04:08:48;15.40;19.20
10304;DHT22;5197;48.152;8.590;2022-08-25T04:11:17;15.40;19.80
10304;DHT22;5197;48.152;8.590;2022-08-25T04:13:45;15.30;19.90
10304;DHT22;5197;48.152;8.590;2022-08-25T04:16:15;15.30;20.30
10304;DHT22;5197;48.152;8.590;2022-08-25T04:18:44;15.20;20.60
10304;DHT22;5197;48.152;8.590;2022-08-25T04:21:12;15.30;21.00
10304;DHT22;5197;48.152;8.590;2022-08-25T04:23:41;15.30;21.30
10304;DHT22;5197;48.152;8.590;2022-08-25T04:26:14;15.30;21.40
10304;DHT22;5197;48.152;8.590;2022-08-25T04:28:41;15.20;21.30
10304;DHT22;5197;48.152;8.590;2022-08-25T04:31:09;15.20;21.80
10304;DHT22;5197;48.152;8.590;2022-08-25T04:33:37;15.20;21.80
10304;DHT22;5197;48.152;8.590;2022-08-25T04:36:05;15.20;21.80
10304;DHT22;5197;48.152;8.590;2022-08-25T04:38:39;15.20;21.60
10304;DHT22;5197;48.152;8.590;2022-08-25T04:41:07;15.20;21.60
10304;DHT22;5197;48.152;8.590;2022-08-25T04:43:35;15.20;21.80
10304;DHT22;5197;48.152;8.590;2022-08-25T04:46:17;15.20;21.80
10304;DHT22;5197;48.152;8.590;2022-08-25T04:48:47;15.20;21.90
10304;DHT22;5197;48.152;8.590;2022-08-25T04:51:21;15.10;22.20
10304;DHT22;5197;48.152;8.590;2022-08-25T04:53:50;15.20;22.60
10304;DHT22;5197;48.152;8.590;2022-08-25T04:56:19;15.20;22.50
10304;DHT22;5197;48.152;8.590;2022-08-25T04:58:46;15.20;22.80
10304;DHT22;5197;48.152;8.590;2022-08-25T05:01:18;15.20;22.80
10304;DHT22;5197;48.152;8.590;2022-08-25T05:03:47;15.20;22.60
10304;DHT22;5197;48.152;8.590;2022-08-25T05:06:14;15.20;22.60
10304;DHT22;5197;48.152;8.590;2022-08-25T05:08:42;15.20;22.70
10304;DHT22;5197;48.152;8.590;2022-08-25T05:11:13;15.90;23.10
10304;DHT22;5197;48.152;8.590;2022-08-25T05:13:43;15.20;23.00
10304;DHT22;5197;48.152;8.590;2022-08-25T05:16:19;15.20;24.20
10304;DHT22;5197;48.152;8.590;2022-08-25T05:18:46;15.20;24.20
10304;DHT22;5197;48.152;8.590;2022-08-25T05:21:20;15.20;24.20
10304;DHT22;5197;48.152;8.590;2022-08-25T05:23:47;15.20;24.20
10304;DHT22;5197;48.152;8.590;2022-08-25T05:26:20;15.30;24.30
10304;DHT22;5197;48.152;8.590;2022-08-25T05:28:51;15.30;24.30
10304;DHT22;5197;48.152;8.590;2022-08-25T05:31:19;15.30;24.30
10304;DHT22;5197;48.152;8.590;2022-08-25T05:33:47;15.40;24.50
10304;DHT22;5197;48.152;8.590;2022-08-25T05:36:15;15.40;24.40
10304;DHT22;5197;48.152;8.590;2022-08-25T05:38:43;15.40;24.50
10304;DHT22;5197;48.152;8.590;2022-08-25T05:41:18;15.50;24.50
10304;DHT22;5197;48.152;8.590;2022-08-25T05:43:47;15.50;24.90
10304;DHT22;5197;48.152;8.590;2022-08-25T05:46:17;15.60;25.10
10304;DHT22;5197;48.152;8.590;2022-08-25T05:48:44;15.70;25.50
10304;DHT22;5197;48.152;8.590;2022-08-25T05:51:13;15.80;25.60
10304;DHT22;5197;48.152;8.590;2022-08-25T05:53:43;15.80;26.80
10304;DHT22;5197;48.152;8.590;2022-08-25T05:56:11;15.90;25.50
10304;DHT22;5197;48.152;8.590;2022-08-25T05:58:40;16.00;25.50
10304;DHT22;5197;48.152;8.590;2022-08-25T06:01:09;16.10;25.60
10304;DHT22;5197;48.152;8.590;2022-08-25T06:03:55;16.20;25.50
10304;DHT22;5197;48.152;8.590;2022-08-25T06:06:23;16.30;25.10
10304;DHT22;5197;48.152;8.590;2022-08-25T06:08:50;16.40;25.10
10304;DHT22;5197;48.152;8.590;2022-08-25T06:11:17;16.50;25.20
10304;DHT22;5197;48.152;8.590;2022-08-25T06:13:45;16.70;26.30
10304;DHT22;5197;48.152;8.590;2022-08-25T06:16:12;16.90;27.40
10304;DHT22;5197;48.152;8.590;2022-08-25T06:18:39;17.20;29.70
10304;DHT22;5197;48.152;8.590;2022-08-25T06:21:11;17.50;30.30
10304;DHT22;5197;48.152;8.590;2022-08-25T06:23:39;18.00;29.00
10304;DHT22;5197;48.152;8.590;2022-08-25T06:26:09;18.50;26.50
10304;DHT22;5197;48.152;8.590;2022-08-25T06:28:45;19.00;25.30
10304;DHT22;5197;48.152;8.590;2022-08-25T06:31:12;19.50;21.10
10304;DHT22;5197;48.152;8.590;2022-08-25T06:33:39;20.00;16.70
10304;DHT22;5197;48.152;8.590;2022-08-25T06:36:06;20.40;15.10
10304;DHT22;5197;48.152;8.590;2022-08-25T06:38:34;20.80;12.90
10304;DHT22;5197;48.152;8.590;2022-08-25T06:41:06;21.20;10.90
10304;DHT22;5197;48.152;8.590;2022-08-25T06:43:34;21.60;9.20
10304;DHT22;5197;48.152;8.590;2022-08-25T06:48:35;22.30;5.80
10304;DHT22;5197;48.152;8.590;2022-08-25T06:51:08;22.60;6.00
10304;DHT22;5197;48.152;8.590;2022-08-25T06:53:40;22.70;6.10
10304;DHT22;5197;48.152;8.590;2022-08-25T06:56:08;22.80;5.10
10304;DHT22;5197;48.152;8.590;2022-08-25T06:58:35;22.90;4.10
10304;DHT22;5197;48.152;8.590;2022-08-25T07:03:47;23.40;1.00
10304;DHT22;5197;48.152;8.590;2022-08-25T07:06:16;23.50;1.00
10304;DHT22;5197;48.152;8.590;2022-08-25T07:08:45;23.90;1.00
10304;DHT22;5197;48.152;8.590;2022-08-25T07:11:14;24.10;1.00
10304;DHT22;5197;48.152;8.590;2022-08-25T07:13:43;24.20;1.00
10304;DHT22;5197;48.152;8.590;2022-08-25T07:16:11;24.40;1.00
10304;DHT22;5197;48.152;8.590;2022-08-25T07:18:41;24.60;1.00
10304;DHT22;5197;48.152;8.590;2022-08-25T07:21:10;24.80;1.00
10304;DHT22;5197;48.152;8.590;2022-08-25T07:23:39;24.90;1.00
10304;DHT22;5197;48.152;8.590;2022-08-25T07:26:15;24.90;1.00
10304;DHT22;5197;48.152;8.590;2022-08-25T07:29:10;24.70;1.00
10304;DHT22;5197;48.152;8.590;2022-08-25T07:31:37;24.00;1.00
10304;DHT22;5197;48.152;8.590;2022-08-25T07:34:06;23.60;1.00
10304;DHT22;5197;48.152;8.590;2022-08-25T07:36:53;23.40;1.00
10304;DHT22;5197;48.152;8.590;2022-08-25T07:39:21;23.30;1.00
10304;DHT22;5197;48.152;8.590;2022-08-25T07:41:52;23.30;1.00
10304;DHT22;5197;48.152;8.590;2022-08-25T07:44:21;23.70;1.00
10304;DHT22;5197;48.152;8.590;2022-08-25T07:46:49;24.10;1.00
10304;DHT22;5197;48.152;8.590;2022-08-25T07:49:18;24.40;1.00
10304;DHT22;5197;48.152;8.590;2022-08-25T07:51:50;24.70;1.00
10304;DHT22;5197;48.152;8.590;2022-08-25T07:54:32;24.80;1.00
10304;DHT22;5197;48.152;8.590;2022-08-25T07:57:05;25.30;1.00
10304;DHT22;5197;48.152;8.590;2022-08-25T07:59:33;25.50;1.00
10304;DHT22;5197;48.152;8.590;2022-08-25T08:02:07;25.50;1.00
10304;DHT22;5197;48.152;8.590;2022-08-25T08:04:48;25.50;1.00
10304;DHT22;5197;48.152;8.590;2022-08-25T08:07:17;25.30;1.00
10304;DHT22;5197;48.152;8.590;2022-08-25T08:09:46;25.20;1.00
10304;DHT22;5197;48.152;8.590;2022-08-25T08:12:22;25.20;1.00
10304;DHT22;5197;48.152;8.590;2022-08-25T08:14:50;25.40;1.00
10304;DHT22;5197;48.152;8.590;2022-08-25T08:17:19;25.70;1.00
10304;DHT22;5197;48.152;8.590;2022-08-25T08:19:46;25.90;1.00
10304;DHT22;5197;48.152;8.590;2022-08-25T08:22:14;25.90;1.00
10304;DHT22;5197;48.152;8.590;2022-08-25T08:24:43;25.90;1.00
10304;DHT22;5197;48.152;8.590;2022-08-25T08:27:22;26.00;1.00
10304;DHT22;5197;48.152;8.590;2022-08-25T08:29:50;26.40;1.00
10304;DHT22;5197;48.152;8.590;2022-08-25T08:32:18;26.70;1.00
10304;DHT22;5197;48.152;8.590;2022-08-25T08:34:45;26.80;1.00
10304;DHT22;5197;48.152;8.590;2022-08-25T08:37:17;26.90;1.00
10304;DHT22;5197;48.152;8.590;2022-08-25T08:39:47;27.10;1.00
10304;DHT22;5197;48.152;8.590;2022-08-25T08:56:14;27.00;1.00
10304;DHT22;5197;48.152;8.590;2022-08-25T09:01:25;26.80;1.00
10304;DHT22;5197;48.152;8.590;2022-08-25T09:04:26;26.50;1.00
10304;DHT22;5197;48.152;8.590;2022-08-25T09:06:56;26.20;1.00
10304;DHT22;5197;48.152;8.590;2022-08-25T09:09:30;26.00;1.00
10304;DHT22;5197;48.152;8.590;2022-08-25T09:12:29;25.90;1.00
10304;DHT22;5197;48.152;8.590;2022-08-25T09:20:35;25.80;1.00
10304;DHT22;5197;48.152;8.590;2022-08-25T09:28:46;25.60;1.00
10304;DHT22;5197;48.152;8.590;2022-08-25T09:31:26;25.50;1.00
10304;DHT22;5197;48.152;8.590;2022-08-25T09:34:01;25.50;1.00
10304;DHT22;5197;48.152;8.590;2022-08-25T09:36:30;25.50;1.00
10304;DHT22;5197;48.152;8.590;2022-08-25T09:39:04;25.50;1.00
10304;DHT22;5197;48.152;8.590;2022-08-25T09:41:48;25.60;1.00
10304;DHT22;5197;48.152;8.590;2022-08-25T09:44:32;25.60;1.00
10304;DHT22;5197;48.152;8.590;2022-08-25T09:49:47;25.60;1.00
10304;DHT22;5197;48.152;8.590;2022-08-25T09:54:56;25.50;1.00
10304;DHT22;5197;48.152;8.590;2022-08-25T09:57:51;25.50;1.00
10304;DHT22;5197;48.152;8.590;2022-08-25T10:00:30;25.30;1.00
10304;DHT22;5197;48.152;8.590;2022-08-25T10:03:18;25.30;1.00
10304;DHT22;5197;48.152;8.590;2022-08-25T10:06:12;25.40;1.00
10304;DHT22;5197;48.152;8.590;2022-08-25T10:11:13;25.50;1.00
10304;DHT22;5197;48.152;8.590;2022-08-25T10:19:01;25.50;1.00
10304;DHT22;5197;48.152;8.590;2022-08-25T10:21:28;25.70;1.00
10304;DHT22;5197;48.152;8.590;2022-08-25T10:23:55;25.80;1.00
10304;DHT22;5197;48.152;8.590;2022-08-25T10:26:35;25.80;1.00
10304;DHT22;5197;48.152;8.590;2022-08-25T10:31:53;25.70;1.00
10304;DHT22;5197;48.152;8.590;2022-08-25T10:34:46;25.50;1.00
10304;DHT22;5197;48.152;8.590;2022-08-25T10:43:04;25.50;1.00
10304;DHT22;5197;48.152;8.590;2022-08-25T10:45:47;25.60;1.00
10304;DHT22;5197;48.152;8.590;2022-08-25T10:51:39;25.80;1.00
10304;DHT22;5197;48.152;8.590;2022-08-25T11:00:06;25.60;1.00
10304;DHT22;5197;48.152;8.590;2022-08-25T11:05:48;25.20;1.00
10304;DHT22;5197;48.152;8.590;2022-08-25T11:08:39;25.10;1.00
10304;DHT22;5197;48.152;8.590;2022-08-25T11:13:58;25.10;1.00
10304;DHT22;5197;48.152;8.590;2022-08-25T11:19:36;25.20;1.00
10304;DHT22;5197;48.152;8.590;2022-08-25T11:22:21;25.40;1.00
10304;DHT22;5197;48.152;8.590;2022-08-25T11:30:16;25.80;1.00
10304;DHT22;5197;48.152;8.590;2022-08-25T11:32:49;25.90;1.00
10304;DHT22;5197;48.152;8.590;2022-08-25T11:35:30;26.00;1.00
10304;DHT22;5197;48.152;8.590;2022-08-25T11:38:24;26.20;1.00
10304;DHT22;5197;48.152;8.590;2022-08-25T11:51:52;26.80;1.00
10304;DHT22;5197;48.152;8.590;2022-08-25T11:54:23;26.80;1.00
10304;DHT22;5197;48.152;8.590;2022-08-25T11:57:03;26.90;1.00
10304;DHT22;5197;48.152;8.590;2022-08-25T12:02:38;27.20;1.00
10304;DHT22;5197;48.152;8.590;2022-08-25T12:16:30;26.60;1.00
10304;DHT22;5197;48.152;8.590;2022-08-25T12:19:46;26.70;1.00
10304;DHT22;5197;48.152;8.590;2022-08-25T12:30:38;27.40;1.00
10304;DHT22;5197;48.152;8.590;2022-08-25T12:33:42;27.30;1.00
10304;DHT22;5197;48.152;8.590;2022-08-25T12:36:28;27.30;1.00
10304;DHT22;5197;48.152;8.590;2022-08-25T12:42:05;27.80;1.00
10304;DHT22;5197;48.152;8.590;2022-08-25T12:49:53;28.40;1.00
10304;DHT22;5197;48.152;8.590;2022-08-25T12:52:40;28.50;1.00
10304;DHT22;5197;48.152;8.590;2022-08-25T12:55:12;28.50;1.00
10304;DHT22;5197;48.152;8.590;2022-08-25T12:57:51;28.40;1.00
10304;DHT22;5197;48.152;8.590;2022-08-25T13:00:28;28.40;1.00
10304;DHT22;5197;48.152;8.590;2022-08-25T13:09:21;28.20;1.00
10304;DHT22;5197;48.152;8.590;2022-08-25T13:12:17;28.20;1.00
10304;DHT22;5197;48.152;8.590;2022-08-25T13:14:52;27.80;1.00
10304;DHT22;5197;48.152;8.590;2022-08-25T13:17:32;28.20;1.00
10304;DHT22;5197;48.152;8.590;2022-08-25T13:20:29;28.00;1.00
10304;DHT22;5197;48.152;8.590;2022-08-25T13:22:58;27.60;1.00
10304;DHT22;5197;48.152;8.590;2022-08-25T13:25:28;27.60;1.00
10304;DHT22;5197;48.152;8.590;2022-08-25T13:28:02;27.70;1.00
10304;DHT22;5197;48.152;8.590;2022-08-25T13:30:32;28.00;1.00
10304;DHT22;5197;48.152;8.590;2022-08-25T13:33:15;28.20;1.00
10304;DHT22;5197;48.152;8.590;2022-08-25T13:35:51;28.40;1.00
10304;DHT22;5197;48.152;8.590;2022-08-25T13:38:43;28.60;1.00
10304;DHT22;5197;48.152;8.590;2022-08-25T13:41:23;28.70;1.00
10304;DHT22;5197;48.152;8.590;2022-08-25T13:43:55;28.80;1.00
10304;DHT22;5197;48.152;8.590;2022-08-25T13:46:27;28.80;1.00
10304;DHT22;5197;48.152;8.590;2022-08-25T13:49:06;28.90;1.00
10304;DHT22;5197;48.152;8.590;2022-08-25T13:51:35;29.00;1.00
10304;DHT22;5197;48.152;8.590;2022-08-25T13:54:09;29.00;1.00
10304;DHT22;5197;48.152;8.590;2022-08-25T13:56:50;29.20;1.00
10304;DHT22;5197;48.152;8.590;2022-08-25T13:59:28;29.30;1.00
10304;DHT22;5197;48.152;8.590;2022-08-25T14:01:59;29.50;1.00
10304;DHT22;5197;48.152;8.590;2022-08-25T14:10:29;29.70;1.00
10304;DHT22;5197;48.152;8.590;2022-08-25T14:16:27;29.90;1.00
10304;DHT22;5197;48.152;8.590;2022-08-25T14:18:55;29.90;1.00
10304;DHT22;5197;48.152;8.590;2022-08-25T14:21:27;29.60;1.00
10304;DHT22;5197;48.152;8.590;2022-08-25T14:23:55;29.50;1.00
10304;DHT22;5197;48.152;8.590;2022-08-25T14:26:23;29.40;1.00
10304;DHT22;5197;48.152;8.590;2022-08-25T14:28:52;29.50;1.00
10304;DHT22;5197;48.152;8.590;2022-08-25T14:33:58;29.60;1.00
10304;DHT22;5197;48.152;8.590;2022-08-25T14:36:29;29.60;1.00
10304;DHT22;5197;48.152;8.590;2022-08-25T14:38:56;29.40;1.00
10304;DHT22;5197;48.152;8.590;2022-08-25T14:41:24;29.40;1.00
10304;DHT22;5197;48.152;8.590;2022-08-25T14:43:52;29.40;1.00
10304;DHT22;5197;48.152;8.590;2022-08-25T14:46:22;29.30;1.00
10304;DHT22;5197;48.152;8.590;2022-08-25T14:48:57;29.20;1.00
10304;DHT22;5197;48.152;8.590;2022-08-25T14:51:26;29.10;1.00
10304;DHT22;5197;48.152;8.590;2022-08-25T14:53:59;29.10;1.00
10304;DHT22;5197;48.152;8.590;2022-08-25T14:56:28;29.10;1.00
10304;DHT22;5197;48.152;8.590;2022-08-25T14:58:55;29.20;1.00
10304;DHT22;5197;48.152;8.590;2022-08-25T15:01:26;29.30;1.00
10304;DHT22;5197;48.152;8.590;2022-08-25T15:04:02;29.40;1.00
10304;DHT22;5197;48.152;8.590;2022-08-25T15:06:30;29.60;1.00
10304;DHT22;5197;48.152;8.590;2022-08-25T15:08:59;29.50;1.00
10304;DHT22;5197;48.152;8.590;2022-08-25T15:11:45;29.50;1.00
10304;DHT22;5197;48.152;8.590;2022-08-25T15:14:15;29.60;1.00
10304;DHT22;5197;48.152;8.590;2022-08-25T15:16:53;29.80;1.00
10304;DHT22;5197;48.152;8.590;2022-08-25T15:19:24;29.90;1.00
10304;DHT22;5197;48.152;8.590;2022-08-25T15:21:52;30.00;1.00
10304;DHT22;5197;48.152;8.590;2022-08-25T15:24:24;30.20;1.00
10304;DHT22;5197;48.152;8.590;2022-08-25T15:26:54;30.30;1.00
10304;DHT22;5197;48.152;8.590;2022-08-25T15:29:23;30.30;1.00
10304;DHT22;5197;48.152;8.590;2022-08-25T15:31:52;30.30;1.00
10304;DHT22;5197;48.152;8.590;2022-08-25T15:34:19;30.10;1.00
10304;DHT22;5197;48.152;8.590;2022-08-25T15:36:47;29.90;1.00
10304;DHT22;5197;48.152;8.590;2022-08-25T15:39:15;29.60;1.00
10304;DHT22;5197;48.152;8.590;2022-08-25T15:41:45;29.30;1.00
10304;DHT22;5197;48.152;8.590;2022-08-25T15:44:15;29.00;1.00
10304;DHT22;5197;48.152;8.590;2022-08-25T15:46:42;29.00;1.00
10304;DHT22;5197;48.152;8.590;2022-08-25T15:49:15;29.00;1.00
10304;DHT22;5197;48.152;8.590;2022-08-25T15:51:52;29.00;1.00
10304;DHT22;5197;48.152;8.590;2022-08-25T15:54:21;29.10;1.00
10304;DHT22;5197;48.152;8.590;2022-08-25T15:56:48;29.20;1.00
10304;DHT22;5197;48.152;8.590;2022-08-25T15:59:17;29.20;1.00
10304;DHT22;5197;48.152;8.590;2022-08-25T16:01:48;29.30;1.00
10304;DHT22;5197;48.152;8.590;2022-08-25T16:04:23;29.30;1.00
10304;DHT22;5197;48.152;8.590;2022-08-25T16:06:52;29.30;1.00
10304;DHT22;5197;48.152;8.590;2022-08-25T16:09:22;29.20;1.00
10304;DHT22;5197;48.152;8.590;2022-08-25T16:11:49;29.10;1.00
10304;DHT22;5197;48.152;8.590;2022-08-25T16:14:24;29.10;1.00
10304;DHT22;5197;48.152;8.590;2022-08-25T16:16:51;29.10;1.00
10304;DHT22;5197;48.152;8.590;2022-08-25T16:19:18;29.00;1.00
10304;DHT22;5197;48.152;8.590;2022-08-25T16:21:45;29.10;1.00
10304;DHT22;5197;48.152;8.590;2022-08-25T16:24:13;29.20;1.00
10304;DHT22;5197;48.152;8.590;2022-08-25T16:26:40;29.30;1.00
10304;DHT22;5197;48.152;8.590;2022-08-25T16:29:15;29.40;1.00
10304;DHT22;5197;48.152;8.590;2022-08-25T16:31:44;29.50;1.00
10304;DHT22;5197;48.152;8.590;2022-08-25T16:34:19;29.60;1.00
10304;DHT22;5197;48.152;8.590;2022-08-25T16:36:46;29.70;1.00
10304;DHT22;5197;48.152;8.590;2022-08-25T16:39:18;29.80;1.00
10304;DHT22;5197;48.152;8.590;2022-08-25T16:41:46;29.80;1.00
10304;DHT22;5197;48.152;8.590;2022-08-25T16:44:14;29.80;1.00
10304;DHT22;5197;48.152;8.590;2022-08-25T16:46:41;29.80;1.00
10304;DHT22;5197;48.152;8.590;2022-08-25T16:49:11;29.90;1.00
10304;DHT22;5197;48.152;8.590;2022-08-25T16:51:41;29.90;1.00
10304;DHT22;5197;48.152;8.590;2022-08-25T16:54:10;29.90;1.00
10304;DHT22;5197;48.152;8.590;2022-08-25T16:56:56;30.00;1.00
10304;DHT22;5197;48.152;8.590;2022-08-25T16:59:24;30.00;1.00
10304;DHT22;5197;48.152;8.590;2022-08-25T17:01:51;30.00;1.00
10304;DHT22;5197;48.152;8.590;2022-08-25T17:04:19;30.00;1.00
10304;DHT22;5197;48.152;8.590;2022-08-25T17:06:55;30.10;1.00
10304;DHT22;5197;48.152;8.590;2022-08-25T17:09:22;30.00;1.00
10304;DHT22;5197;48.152;8.590;2022-08-25T17:11:50;30.00;1.00
10304;DHT22;5197;48.152;8.590;2022-08-25T17:14:20;30.00;1.00
10304;DHT22;5197;48.152;8.590;2022-08-25T17:16:47;30.00;1.00
10304;DHT22;5197;48.152;8.590;2022-08-25T17:19:17;30.00;1.00
10304;DHT22;5197;48.152;8.590;2022-08-25T17:21:44;29.90;1.00
10304;DHT22;5197;48.152;8.590;2022-08-25T17:24:12;29.90;1.00
10304;DHT22;5197;48.152;8.590;2022-08-25T17:26:41;29.80;1.00
10304;DHT22;5197;48.152;8.590;2022-08-25T17:29:09;29.80;1.00
10304;DHT22;5197;48.152;8.590;2022-08-25T17:31:36;29.70;1.00
10304;DHT22;5197;48.152;8.590;2022-08-25T17:34:07;29.60;1.00
10304;DHT22;5197;48.152;8.590;2022-08-25T17:36:37;29.60;1.00
10304;DHT22;5197;48.152;8.590;2022-08-25T17:39:07;29.50;1.00
10304;DHT22;5197;48.152;8.590;2022-08-25T17:41:34;29.40;1.00
10304;DHT22;5197;48.152;8.590;2022-08-25T17:44:04;29.30;1.00
10304;DHT22;5197;48.152;8.590;2022-08-25T17:46:31;29.10;1.00
10304;DHT22;5197;48.152;8.590;2022-08-25T17:48:59;28.90;1.00
10304;DHT22;5197;48.152;8.590;2022-08-25T17:51:26;28.80;1.00
10304;DHT22;5197;48.152;8.590;2022-08-25T17:53:57;28.60;1.00
10304;DHT22;5197;48.152;8.590;2022-08-25T17:56:26;28.50;1.00
10304;DHT22;5197;48.152;8.590;2022-08-25T17:58:54;28.30;1.00
10304;DHT22;5197;48.152;8.590;2022-08-25T18:01:23;28.10;1.00
10304;DHT22;5197;48.152;8.590;2022-08-25T18:03:51;27.90;1.00
10304;DHT22;5197;48.152;8.590;2022-08-25T18:06:20;27.80;1.00
10304;DHT22;5197;48.152;8.590;2022-08-25T18:08:47;27.70;1.00
10304;DHT22;5197;48.152;8.590;2022-08-25T18:11:18;27.50;1.00
10304;DHT22;5197;48.152;8.590;2022-08-25T18:13:46;27.40;1.00
10304;DHT22;5197;48.152;8.590;2022-08-25T18:16:16;27.20;1.00
10304;DHT22;5197;48.152;8.590;2022-08-25T18:18:43;27.00;1.00
10304;DHT22;5197;48.152;8.590;2022-08-25T18:21:12;27.00;1.00
10304;DHT22;5197;48.152;8.590;2022-08-25T18:23:40;26.90;1.00
10304;DHT22;5197;48.152;8.590;2022-08-25T18:26:10;26.90;1.00
10304;DHT22;5197;48.152;8.590;2022-08-25T18:28:39;26.80;1.00
10304;DHT22;5197;48.152;8.590;2022-08-25T18:31:10;26.70;1.00
10304;DHT22;5197;48.152;8.590;2022-08-25T18:33:39;26.60;1.00
10304;DHT22;5197;48.152;8.590;2022-08-25T18:36:08;26.40;1.00
10304;DHT22;5197;48.152;8.590;2022-08-25T18:38:35;26.30;1.00
10304;DHT22;5197;48.152;8.590;2022-08-25T18:41:25;26.20;1.00
10304;DHT22;5197;48.152;8.590;2022-08-25T18:43:53;26.10;1.00
10304;DHT22;5197;48.152;8.590;2022-08-25T18:46:20;26.00;1.00
10304;DHT22;5197;48.152;8.590;2022-08-25T18:48:49;26.00;1.00